createdAt,value
2018-08-28T00:02:29.145Z,5.47
2018-08-28T00:04:56.486Z,5.80
2018-08-28T00:07:23.698Z,6.13
2018-08-28T00:09:50.893Z,5.57
2018-08-28T00:12:18.115Z,6.37
2018-08-28T00:14:45.801Z,5.87
2018-08-28T00:17:13.425Z,6.07
2018-08-28T00:19:40.659Z,6.30
2018-08-28T00:22:07.864Z,6.17
2018-08-28T00:24:35.145Z,5.80
2018-08-28T00:27:02.683Z,5.40
2018-08-28T00:29:29.864Z,6.10
2018-08-28T00:31:57.056Z,6.30
2018-08-28T00:34:24.225Z,5.67
2018-08-28T00:36:51.477Z,5.80
2018-08-28T00:39:18.756Z,5.93
2018-08-28T00:41:46.047Z,6.40
2018-08-28T00:44:13.452Z,6.10
2018-08-28T00:46:40.719Z,6.23
2018-08-28T00:49:07.935Z,6.40
2018-08-28T00:51:35.233Z,5.57
2018-08-28T00:54:02.521Z,5.57
2018-08-28T00:56:29.708Z,6.47
2018-08-28T00:58:56.889Z,6.27
2018-08-28T01:01:24.172Z,5.73
2018-08-28T01:03:51.678Z,6.03
2018-08-28T01:06:18.833Z,6.10
2018-08-28T01:08:46.376Z,6.27
2018-08-28T01:11:13.541Z,6.17
2018-08-28T01:13:40.768Z,6.03
2018-08-28T01:16:08.112Z,6.10
2018-08-28T01:18:35.288Z,6.00
2018-08-28T01:21:02.445Z,5.90
2018-08-28T01:23:29.693Z,5.97
2018-08-28T01:25:56.970Z,6.00
2018-08-28T01:28:24.318Z,6.00
2018-08-28T01:30:51.736Z,6.87
2018-08-28T01:33:18.837Z,7.07
2018-08-28T01:35:46.127Z,6.80
2018-08-28T01:38:13.533Z,6.27
2018-08-28T01:40:40.854Z,6.17
2018-08-28T01:43:13.632Z,6.87
2018-08-28T01:45:40.805Z,6.10
2018-08-28T01:48:07.982Z,6.33
2018-08-28T01:50:35.297Z,5.70
2018-08-28T01:53:02.610Z,6.30
2018-08-28T01:55:29.812Z,7.80
2018-08-28T01:57:57.037Z,7.03
2018-08-28T02:00:24.237Z,7.10
2018-08-28T02:02:51.693Z,7.47
2018-08-28T02:05:18.988Z,7.50
2018-08-28T02:07:46.446Z,7.40
2018-08-28T02:10:13.653Z,6.93
2018-08-28T02:12:40.877Z,7.37
2018-08-28T02:15:08.140Z,6.43
2018-08-28T02:17:35.438Z,7.33
2018-08-28T02:20:02.719Z,7.80
2018-08-28T02:22:29.895Z,7.10
2018-08-28T02:24:57.049Z,6.73
2018-08-28T02:27:24.327Z,7.10
2018-08-28T02:29:51.594Z,7.77
2018-08-28T02:32:18.708Z,6.40
2018-08-28T02:34:46.520Z,6.73
2018-08-28T02:37:13.789Z,6.63
2018-08-28T02:39:41.025Z,6.00
2018-08-28T02:42:08.364Z,7.20
2018-08-28T02:44:35.564Z,7.23
2018-08-28T02:47:02.795Z,5.87
2018-08-28T02:49:29.989Z,7.27
2018-08-28T02:51:57.224Z,6.70
2018-08-28T02:54:24.547Z,7.00
2018-08-28T02:56:51.748Z,7.37
2018-08-28T02:59:18.879Z,6.93
2018-08-28T03:01:46.302Z,7.13
2018-08-28T03:04:13.636Z,7.70
2018-08-28T03:06:40.938Z,6.90
2018-08-28T03:09:08.297Z,7.23
2018-08-28T03:11:38.824Z,7.67
2018-08-28T03:14:05.954Z,7.80
2018-08-28T03:16:33.189Z,7.73
2018-08-28T03:19:00.547Z,7.60
2018-08-28T03:21:27.777Z,7.73
2018-08-28T03:23:58.460Z,8.07
2018-08-28T03:26:25.672Z,7.03
2018-08-28T03:28:53.145Z,7.47
2018-08-28T03:31:20.448Z,7.27
2018-08-28T03:33:47.627Z,7.10
2018-08-28T03:36:14.761Z,7.57
2018-08-28T03:38:42.158Z,7.50
2018-08-28T03:41:09.410Z,7.50
2018-08-28T03:43:36.626Z,7.63
2018-08-28T03:46:03.774Z,7.17
2018-08-28T03:48:31.556Z,7.00
2018-08-28T03:50:58.813Z,8.10
2018-08-28T03:53:25.980Z,7.43
2018-08-28T03:55:53.821Z,7.20
2018-08-28T03:58:21.013Z,7.40
2018-08-28T04:00:48.350Z,7.00
2018-08-28T04:03:15.565Z,6.93
2018-08-28T04:05:42.775Z,6.20
2018-08-28T04:08:10.376Z,7.17
2018-08-28T04:10:37.624Z,6.57
2018-08-28T04:13:04.997Z,6.90
2018-08-28T04:15:33.472Z,7.23
2018-08-28T04:18:01.571Z,7.77
2018-08-28T04:20:28.900Z,7.60
2018-08-28T04:22:56.021Z,7.13
2018-08-28T04:25:23.247Z,7.27
2018-08-28T04:27:50.956Z,7.63
2018-08-28T04:30:18.489Z,7.43
2018-08-28T04:32:46.830Z,7.70
2018-08-28T04:35:14.949Z,7.17
2018-08-28T04:37:42.837Z,7.33
2018-08-28T04:40:10.088Z,7.37
2018-08-28T04:42:37.313Z,7.30
2018-08-28T04:45:04.683Z,7.13
2018-08-28T04:47:31.992Z,7.37
2018-08-28T04:49:59.137Z,6.60
2018-08-28T04:52:26.264Z,7.27
2018-08-28T04:54:53.840Z,6.90
2018-08-28T04:57:24.373Z,6.70
2018-08-28T04:59:51.947Z,6.63
2018-08-28T05:02:19.134Z,6.73
2018-08-28T05:04:46.689Z,6.77
2018-08-28T05:07:13.849Z,7.20
2018-08-28T05:09:41.393Z,7.17
2018-08-28T05:12:10.668Z,6.80
2018-08-28T05:14:37.876Z,7.10
2018-08-28T05:17:05.088Z,5.83
2018-08-28T05:19:32.973Z,6.80
2018-08-28T05:22:00.450Z,7.20
2018-08-28T05:24:27.781Z,6.70
2018-08-28T05:26:55.000Z,6.70
2018-08-28T05:29:22.232Z,7.07
2018-08-28T05:31:49.824Z,6.63
2018-08-28T05:34:17.177Z,6.40
2018-08-28T05:36:44.322Z,7.33
2018-08-28T05:39:11.567Z,6.63
2018-08-28T05:41:38.712Z,6.80
2018-08-28T05:44:05.931Z,7.10
2018-08-28T05:46:33.785Z,6.97
2018-08-28T05:49:01.397Z,6.47
2018-08-28T05:51:28.764Z,6.53
2018-08-28T05:53:55.971Z,7.37
2018-08-28T05:56:23.156Z,7.13
2018-08-28T05:58:50.687Z,6.50
2018-08-28T06:01:17.859Z,6.53
2018-08-28T06:03:45.004Z,6.83
2018-08-28T06:06:12.143Z,6.57
2018-08-28T06:08:39.455Z,6.50
2018-08-28T06:11:06.765Z,5.97
2018-08-28T06:13:35.632Z,7.67
2018-08-28T06:16:02.840Z,6.87
2018-08-28T06:18:29.967Z,6.40
2018-08-28T06:20:57.242Z,6.70
2018-08-28T06:23:24.541Z,6.50
2018-08-28T06:25:51.668Z,6.63
2018-08-28T06:28:18.801Z,6.13
2018-08-28T06:30:45.944Z,6.20
2018-08-28T06:33:13.104Z,5.70
2018-08-28T06:35:40.412Z,6.90
2018-08-28T06:38:07.579Z,5.90
2018-08-28T06:40:34.910Z,6.37
2018-08-28T06:43:02.047Z,5.80
2018-08-28T06:45:29.276Z,5.40
2018-08-28T06:47:56.624Z,5.70
2018-08-28T06:50:23.721Z,6.13
2018-08-28T06:52:50.897Z,5.23
2018-08-28T06:55:18.133Z,5.43
2018-08-28T06:57:45.312Z,5.73
2018-08-28T07:00:12.586Z,5.00
2018-08-28T07:02:39.704Z,4.77
2018-08-28T07:05:06.949Z,5.30
2018-08-28T07:07:34.191Z,5.10
2018-08-28T07:10:01.318Z,4.90
2018-08-28T07:12:28.775Z,4.40
2018-08-28T07:14:55.996Z,3.90
2018-08-28T07:17:23.147Z,4.50
2018-08-28T07:19:50.293Z,4.53
2018-08-28T07:22:17.497Z,4.57
2018-08-28T07:24:44.651Z,3.97
2018-08-28T07:27:11.806Z,4.37
2018-08-28T07:29:38.979Z,4.50
2018-08-28T07:32:06.123Z,4.27
2018-08-28T07:34:33.332Z,4.07
2018-08-28T07:37:00.577Z,5.03
2018-08-28T07:39:27.685Z,3.80
2018-08-28T07:41:54.833Z,3.83
2018-08-28T07:44:22.494Z,4.20
2018-08-28T07:46:50.772Z,4.10
2018-08-28T07:49:17.960Z,3.77
2018-08-28T07:51:45.359Z,3.80
2018-08-28T07:54:13.396Z,4.53
2018-08-28T07:56:40.495Z,4.60
2018-08-28T07:59:07.708Z,4.20
2018-08-28T08:01:34.943Z,4.20
2018-08-28T08:04:02.360Z,4.00
2018-08-28T08:06:29.612Z,3.97
2018-08-28T08:08:56.795Z,4.17
2018-08-28T08:11:23.953Z,4.00
2018-08-28T08:13:51.175Z,4.27
2018-08-28T08:16:18.527Z,4.10
2018-08-28T08:18:45.560Z,3.63
2018-08-28T08:21:12.852Z,4.17
2018-08-28T08:23:40.013Z,3.87
2018-08-28T08:26:07.263Z,3.93
2018-08-28T08:28:34.508Z,3.90
2018-08-28T08:31:01.733Z,3.47
2018-08-28T08:33:28.909Z,3.77
2018-08-28T08:35:56.179Z,4.23
2018-08-28T08:38:23.365Z,3.90
2018-08-28T08:40:50.503Z,4.10
2018-08-28T08:43:17.870Z,3.60
2018-08-28T08:45:46.382Z,3.97
2018-08-28T08:48:13.995Z,4.00
2018-08-28T08:50:41.644Z,3.67
2018-08-28T08:53:09.017Z,3.60
2018-08-28T08:55:36.239Z,3.90
2018-08-28T08:58:03.889Z,3.83
2018-08-28T09:00:31.980Z,4.07
2018-08-28T09:02:59.463Z,3.83
2018-08-28T09:05:26.747Z,3.30
2018-08-28T09:07:54.641Z,3.93
2018-08-28T09:10:22.288Z,3.97
2018-08-28T09:12:50.021Z,4.07
2018-08-28T09:15:17.738Z,3.67
2018-08-28T09:17:45.173Z,3.67
2018-08-28T09:20:12.776Z,3.50
2018-08-28T09:22:40.727Z,3.67
2018-08-28T09:25:08.193Z,3.60
2018-08-28T09:27:35.572Z,3.77
2018-08-28T09:30:02.919Z,4.03
2018-08-28T09:32:30.027Z,3.47
2018-08-28T09:34:57.295Z,3.60
2018-08-28T09:37:24.585Z,3.93
2018-08-28T09:39:51.757Z,3.63
2018-08-28T09:42:19.065Z,3.70
2018-08-28T09:44:46.177Z,3.97
2018-08-28T09:47:13.400Z,3.53
2018-08-28T09:49:40.742Z,3.90
2018-08-28T09:52:07.950Z,3.90
2018-08-28T09:54:35.165Z,3.70
2018-08-28T09:57:02.557Z,3.80
2018-08-28T09:59:29.808Z,3.67
2018-08-28T10:01:57.139Z,3.73
2018-08-28T10:04:24.447Z,3.80
2018-08-28T10:06:51.565Z,4.10
2018-08-28T10:09:18.908Z,3.90
2018-08-28T10:11:54.650Z,3.90
2018-08-28T10:14:21.839Z,3.83
2018-08-28T10:16:49.093Z,4.27
2018-08-28T10:19:16.403Z,4.20
2018-08-28T10:21:43.750Z,4.00
2018-08-28T10:24:11.294Z,3.73
2018-08-28T10:26:38.671Z,3.90
2018-08-28T10:29:05.811Z,3.90
2018-08-28T10:31:33.219Z,3.60
2018-08-28T10:34:00.515Z,3.70
2018-08-28T10:36:27.612Z,4.23
2018-08-28T10:38:54.789Z,6.30
2018-08-28T10:41:22.249Z,5.00
2018-08-28T10:43:49.690Z,4.70
2018-08-28T10:46:16.902Z,4.37
2018-08-28T10:48:44.221Z,5.33
2018-08-28T10:51:11.481Z,4.70
2018-08-28T10:53:38.716Z,4.80
2018-08-28T10:56:07.876Z,4.40
2018-08-28T10:58:35.012Z,4.93
2018-08-28T11:01:02.361Z,5.37
2018-08-28T11:03:29.700Z,5.60
2018-08-28T11:05:56.848Z,4.53
2018-08-28T11:08:24.500Z,4.53
2018-08-28T11:10:51.785Z,4.43
2018-08-28T11:13:19.013Z,4.63
2018-08-28T11:15:46.309Z,4.50
2018-08-28T11:18:13.644Z,4.33
2018-08-28T11:20:40.856Z,4.47
2018-08-28T11:23:08.893Z,4.93
2018-08-28T11:25:36.109Z,4.20
2018-08-28T11:28:03.484Z,4.63
2018-08-28T11:30:30.725Z,5.03
2018-08-28T11:32:57.925Z,4.30
2018-08-28T11:35:25.128Z,4.20
2018-08-28T11:37:52.236Z,4.60
2018-08-28T11:40:22.429Z,4.73
2018-08-28T11:42:49.652Z,4.20
2018-08-28T11:45:16.920Z,4.60
2018-08-28T11:47:44.075Z,5.17
2018-08-28T11:50:11.401Z,4.50
2018-08-28T11:52:38.528Z,4.90
2018-08-28T11:55:06.122Z,4.60
2018-08-28T11:57:33.372Z,4.77
2018-08-28T12:00:00.721Z,4.47
2018-08-28T12:02:27.953Z,4.53
2018-08-28T12:04:55.181Z,4.93
2018-08-28T12:07:22.544Z,4.67
2018-08-28T12:09:49.816Z,4.87
2018-08-28T12:12:17.186Z,4.93
2018-08-28T12:14:44.438Z,5.10
2018-08-28T12:17:14.557Z,4.30
2018-08-28T12:19:42.405Z,4.20
2018-08-28T12:22:09.671Z,4.90
2018-08-28T12:24:36.899Z,4.80
2018-08-28T12:27:04.328Z,5.10
2018-08-28T12:29:35.750Z,5.00
2018-08-28T12:32:03.712Z,4.93
2018-08-28T12:34:31.484Z,5.37
2018-08-28T12:36:59.665Z,5.27
2018-08-28T12:39:30.627Z,5.80
2018-08-28T12:41:57.845Z,5.10
2018-08-28T12:44:27.924Z,5.00
2018-08-28T12:46:58.504Z,5.00
2018-08-28T12:49:26.700Z,5.27
2018-08-28T12:51:54.077Z,4.70
2018-08-28T12:54:21.291Z,4.77
2018-08-28T12:56:53.255Z,5.03
2018-08-28T12:59:20.984Z,4.33
2018-08-28T13:01:48.305Z,4.70
2018-08-28T13:04:17.553Z,4.90
2018-08-28T13:06:51.444Z,5.30
2018-08-28T13:09:20.200Z,5.20
2018-08-28T13:11:48.433Z,5.13
2018-08-28T13:14:15.852Z,5.13
2018-08-28T13:16:42.986Z,5.20
2018-08-28T13:19:10.174Z,4.53
2018-08-28T13:21:38.280Z,5.20
2018-08-28T13:24:05.442Z,5.37
2018-08-28T13:26:32.594Z,4.60
2018-08-28T13:29:00.355Z,4.60
2018-08-28T13:31:27.538Z,4.17
2018-08-28T13:33:54.720Z,4.63
2018-08-28T13:36:22.016Z,4.90
2018-08-28T13:38:49.240Z,4.60
2018-08-28T13:41:16.481Z,4.80
2018-08-28T13:43:43.683Z,4.77
2018-08-28T13:46:10.869Z,4.60
2018-08-28T13:48:38.141Z,4.70
2018-08-28T13:51:05.581Z,4.93
2018-08-28T13:53:32.752Z,4.20
2018-08-28T13:56:00.558Z,4.80
2018-08-28T13:58:27.994Z,4.50
2018-08-28T14:00:55.272Z,4.47
2018-08-28T14:03:22.586Z,4.17
2018-08-28T14:05:49.844Z,4.37
2018-08-28T14:08:17.037Z,5.63
2018-08-28T14:10:44.196Z,4.80
2018-08-28T14:13:11.459Z,4.67
2018-08-28T14:15:38.757Z,4.23
2018-08-28T14:18:05.904Z,5.27
2018-08-28T14:20:34.161Z,4.23
2018-08-28T14:23:01.625Z,4.63
2018-08-28T14:25:28.860Z,4.83
2018-08-28T14:27:56.304Z,5.10
2018-08-28T14:30:23.423Z,4.80
2018-08-28T14:32:50.609Z,5.40
2018-08-28T14:35:17.808Z,4.70
2018-08-28T14:37:45.877Z,5.30
2018-08-28T14:40:13.004Z,4.60
2018-08-28T14:42:40.768Z,4.80
2018-08-28T14:45:07.880Z,4.63
2018-08-28T14:47:35.021Z,4.73
2018-08-28T14:50:02.358Z,4.80
2018-08-28T14:52:29.425Z,4.73
2018-08-28T14:54:56.547Z,4.90
2018-08-28T14:57:23.831Z,4.80
2018-08-28T14:59:51.660Z,4.50
2018-08-28T15:02:18.880Z,4.80
2018-08-28T15:04:46.040Z,5.07
2018-08-28T15:07:13.889Z,5.13
2018-08-28T15:09:42.145Z,4.70
2018-08-28T15:12:11.105Z,4.77
2018-08-28T15:14:38.925Z,5.00
2018-08-28T15:17:06.780Z,4.73
2018-08-28T15:19:34.246Z,4.97
2018-08-28T15:22:03.253Z,5.03
2018-08-28T15:24:31.858Z,4.57
2018-08-28T15:26:59.265Z,4.67
2018-08-28T15:29:26.899Z,4.20
2018-08-28T15:31:54.679Z,4.70
2018-08-28T15:34:21.861Z,4.57
2018-08-28T15:36:49.098Z,4.27
2018-08-28T15:39:16.697Z,4.90
2018-08-28T15:41:44.509Z,4.90
2018-08-28T15:44:12.471Z,5.57
2018-08-28T15:46:39.917Z,5.83
2018-08-28T15:49:07.648Z,4.60
2018-08-28T15:51:35.677Z,5.47
2018-08-28T15:54:03.320Z,5.00
2018-08-28T15:56:31.020Z,5.57
2018-08-28T15:58:58.475Z,5.20
2018-08-28T16:01:26.564Z,5.03
2018-08-28T16:03:55.881Z,5.17
2018-08-28T16:06:23.274Z,5.10
2018-08-28T16:08:50.562Z,5.27
2018-08-28T16:11:17.462Z,4.83
2018-08-28T16:13:44.813Z,5.03
2018-08-28T16:16:11.966Z,5.60
2018-08-28T16:18:39.800Z,4.73
2018-08-28T16:21:07.805Z,4.97
2018-08-28T16:23:37.660Z,5.27
2018-08-28T16:26:04.841Z,4.70
2018-08-28T16:28:32.052Z,5.00
2018-08-28T16:30:59.347Z,4.83
2018-08-28T16:33:26.614Z,5.37
2018-08-28T16:35:53.804Z,4.60
2018-08-28T16:38:20.956Z,5.07
2018-08-28T16:40:48.218Z,4.73
2018-08-28T16:43:15.447Z,5.53
2018-08-28T16:45:43.810Z,5.20
2018-08-28T16:48:11.509Z,5.20
2018-08-28T16:50:38.705Z,4.90
2018-08-28T16:53:05.897Z,5.77
2018-08-28T16:55:33.139Z,4.80
2018-08-28T16:58:00.279Z,4.63
2018-08-28T17:00:27.407Z,4.93
2018-08-28T17:02:54.611Z,4.73
2018-08-28T17:05:21.733Z,4.30
2018-08-28T17:07:48.857Z,5.77
2018-08-28T17:10:16.421Z,5.13
2018-08-28T17:12:43.888Z,4.40
2018-08-28T17:15:11.344Z,5.23
2018-08-28T17:17:38.899Z,4.73
2018-08-28T17:20:06.096Z,5.07
2018-08-28T17:22:33.203Z,4.77
2018-08-28T17:25:00.996Z,4.80
2018-08-28T17:27:28.200Z,4.83
2018-08-28T17:29:55.359Z,4.70
2018-08-28T17:32:22.538Z,7.80
2018-08-28T17:34:49.721Z,10.10
2018-08-28T17:37:16.870Z,7.77
2018-08-28T17:39:44.204Z,7.60
2018-08-28T17:42:11.387Z,6.07
2018-08-28T17:44:38.618Z,6.13
2018-08-28T17:47:05.839Z,5.73
2018-08-28T17:49:33.006Z,5.97
2018-08-28T17:52:00.124Z,5.77
2018-08-28T17:54:27.369Z,5.77
2018-08-28T17:56:54.520Z,6.00
2018-08-28T17:59:21.865Z,4.97
2018-08-28T18:01:49.052Z,5.10
2018-08-28T18:04:16.154Z,5.67
2018-08-28T18:06:43.324Z,5.57
2018-08-28T18:09:10.547Z,5.37
2018-08-28T18:11:37.721Z,5.40
2018-08-28T18:14:04.879Z,5.60
2018-08-28T18:16:32.232Z,5.50
2018-08-28T18:19:00.003Z,5.40
2018-08-28T18:21:27.110Z,5.57
2018-08-28T18:23:54.458Z,5.03
2018-08-28T18:26:21.584Z,5.50
2018-08-28T18:28:48.763Z,5.97
2018-08-28T18:31:15.924Z,6.10
2018-08-28T18:33:43.080Z,6.20
2018-08-28T18:36:10.206Z,6.23
2018-08-28T18:38:37.536Z,6.10
2018-08-28T18:41:04.871Z,5.60
2018-08-28T18:43:31.886Z,6.20
2018-08-28T18:45:59.058Z,5.87
2018-08-28T18:48:26.178Z,5.87
2018-08-28T18:50:53.301Z,6.00
2018-08-28T18:53:20.538Z,6.00
2018-08-28T18:55:47.673Z,5.20
2018-08-28T18:58:14.867Z,5.97
2018-08-28T19:00:42.128Z,5.73
2018-08-28T19:03:09.255Z,5.67
2018-08-28T19:05:36.427Z,5.67
2018-08-28T19:08:07.237Z,5.80
2018-08-28T19:10:34.358Z,5.73
2018-08-28T19:13:01.475Z,6.10
2018-08-28T19:15:28.759Z,5.90
2018-08-28T19:17:55.883Z,5.53
2018-08-28T19:20:23.034Z,7.17
2018-08-28T19:22:50.292Z,5.90
2018-08-28T19:25:17.418Z,5.83
2018-08-28T19:27:44.535Z,5.77
2018-08-28T19:30:11.778Z,6.27
2018-08-28T19:32:38.888Z,7.03
2018-08-28T19:35:06.090Z,5.80
2018-08-28T19:37:33.346Z,5.97
2018-08-28T19:40:00.480Z,6.60
2018-08-28T19:42:27.645Z,6.63
2018-08-28T19:44:55.826Z,7.33
2018-08-28T19:47:23.008Z,6.87
2018-08-28T19:49:50.140Z,7.70
2018-08-28T19:52:17.320Z,6.90
2018-08-28T19:54:44.436Z,7.23
2018-08-28T19:57:11.565Z,7.03
2018-08-28T19:59:38.730Z,7.73
2018-08-28T20:02:05.893Z,6.70
2018-08-28T20:04:33.022Z,7.20
2018-08-28T20:07:00.235Z,7.10
2018-08-28T20:09:27.365Z,6.63
2018-08-28T20:11:54.486Z,6.73
2018-08-28T20:14:21.833Z,7.00
2018-08-28T20:16:48.984Z,6.17
2018-08-28T20:19:16.105Z,6.90
2018-08-28T20:21:43.262Z,6.40
2018-08-28T20:24:10.485Z,7.60
2018-08-28T20:26:37.635Z,6.77
2018-08-28T20:29:04.951Z,6.97
2018-08-28T20:31:32.089Z,7.50
2018-08-28T20:33:59.229Z,7.37
2018-08-28T20:36:26.490Z,6.77
2018-08-28T20:38:53.667Z,6.57
2018-08-28T20:41:20.828Z,6.30
2018-08-28T20:43:48.177Z,6.40
2018-08-28T20:46:15.340Z,6.20
2018-08-28T20:48:42.549Z,7.00
2018-08-28T20:51:09.820Z,6.10
2018-08-28T20:53:36.996Z,5.80
2018-08-28T20:56:04.223Z,6.27
2018-08-28T20:58:32.799Z,5.93
2018-08-28T21:00:59.941Z,5.60
2018-08-28T21:03:27.067Z,6.20
2018-08-28T21:05:54.304Z,6.07
2018-08-28T21:08:22.461Z,5.60
2018-08-28T21:10:49.551Z,6.23
2018-08-28T21:13:16.772Z,6.10
2018-08-28T21:15:43.915Z,6.03
2018-08-28T21:18:17.845Z,5.70
2018-08-28T21:20:45.269Z,5.50
2018-08-28T21:23:12.396Z,5.30
2018-08-28T21:25:39.643Z,5.23
2018-08-28T21:28:06.779Z,5.73
2018-08-28T21:30:33.965Z,5.97
2018-08-28T21:33:01.173Z,5.97
2018-08-28T21:35:28.284Z,5.40
2018-08-28T21:37:55.402Z,6.50
2018-08-28T21:40:22.621Z,6.10
2018-08-28T21:42:49.739Z,5.87
2018-08-28T21:45:16.907Z,5.90
2018-08-28T21:47:44.147Z,6.00
2018-08-28T21:50:11.274Z,5.17
2018-08-28T21:52:38.425Z,5.97
2018-08-28T21:55:05.717Z,5.53
2018-08-28T21:57:32.887Z,5.70
2018-08-28T22:00:00.050Z,6.07
2018-08-28T22:02:27.227Z,6.10
2018-08-28T22:04:54.355Z,5.40
2018-08-28T22:07:27.187Z,5.67
2018-08-28T22:09:54.313Z,6.20
2018-08-28T22:12:21.434Z,5.60
2018-08-28T22:14:48.680Z,5.73
2018-08-28T22:17:15.786Z,6.10
2018-08-28T22:19:42.941Z,5.00
2018-08-28T22:22:10.220Z,6.17
2018-08-28T22:24:37.333Z,5.13
2018-08-28T22:27:04.497Z,5.87
2018-08-28T22:29:31.728Z,6.10
2018-08-28T22:31:58.861Z,6.03
2018-08-28T22:34:26.063Z,5.77
2018-08-28T22:36:53.298Z,5.00
2018-08-28T22:39:20.448Z,5.70
2018-08-28T22:41:47.643Z,5.97
2018-08-28T22:44:14.848Z,6.30
2018-08-28T22:46:42.027Z,6.07
2018-08-28T22:49:09.156Z,5.80
2018-08-28T22:51:36.398Z,6.10
2018-08-28T22:54:03.589Z,5.43
2018-08-28T22:56:30.661Z,5.47
2018-08-28T22:58:57.814Z,5.67
2018-08-28T23:01:25.216Z,6.30
2018-08-28T23:03:52.311Z,5.60
2018-08-28T23:06:19.518Z,6.10
2018-08-28T23:08:46.635Z,5.60
2018-08-28T23:11:14.642Z,5.83
2018-08-28T23:13:41.933Z,5.73
2018-08-28T23:16:09.039Z,5.57
2018-08-28T23:18:36.144Z,5.83
2018-08-28T23:21:03.324Z,6.50
2018-08-28T23:23:30.452Z,6.37
2018-08-28T23:25:57.573Z,6.10
2018-08-28T23:28:24.928Z,6.13
2018-08-28T23:30:52.037Z,6.37
2018-08-28T23:33:19.159Z,5.97
2018-08-28T23:35:46.370Z,6.67
2018-08-28T23:38:13.482Z,6.00
2018-08-28T23:40:40.594Z,6.27
2018-08-28T23:43:07.784Z,6.50
2018-08-28T23:45:34.901Z,5.97
2018-08-28T23:48:02.071Z,5.90
2018-08-28T23:50:29.233Z,6.90
2018-08-28T23:52:56.344Z,6.03
2018-08-28T23:55:23.490Z,6.10
2018-08-28T23:57:50.735Z,6.43
